sensor_id;sensor_type;location;lat;lon;timestamp;temperature;humidity
15937;DHT22;9163;48.818;8.976;2023-08-08T00:00:22;12.50;99.90
15937;DHT22;9163;48.818;8.976;2023-08-08T00:02:50;12.50;99.90
15937;DHT22;9163;48.818;8.976;2023-08-08T00:05:17;12.60;99.90
15937;DHT22;9163;48.818;8.976;2023-08-08T00:07:44;12.60;99.90
15937;DHT22;9163;48.818;8.976;2023-08-08T00:10:11;12.60;99.90
15937;DHT22;9163;48.818;8.976;2023-08-08T00:12:38;12.70;99.90
15937;DHT22;9163;48.818;8.976;2023-08-08T00:15:06;12.70;99.90
15937;DHT22;9163;48.818;8.976;2023-08-08T00:17:35;12.60;99.90
15937;DHT22;9163;48.818;8.976;2023-08-08T00:20:03;12.60;99.90
15937;DHT22;9163;48.818;8.976;2023-08-08T00:22:31;12.60;99.90
15937;DHT22;9163;48.818;8.976;2023-08-08T00:24:58;12.70;99.90
15937;DHT22;9163;48.818;8.976;2023-08-08T00:27:25;12.70;99.90
15937;DHT22;9163;48.818;8.976;2023-08-08T00:29:52;12.80;99.90
15937;DHT22;9163;48.818;8.976;2023-08-08T00:32:21;12.80;99.90
15937;DHT22;9163;48.818;8.976;2023-08-08T00:34:49;12.80;99.90
15937;DHT22;9163;48.818;8.976;2023-08-08T00:37:16;12.80;99.90
15937;DHT22;9163;48.818;8.976;2023-08-08T00:39:43;12.90;99.90
15937;DHT22;9163;48.818;8.976;2023-08-08T00:42:12;12.80;99.90
15937;DHT22;9163;48.818;8.976;2023-08-08T00:44:39;12.80;99.90
15937;DHT22;9163;48.818;8.976;2023-08-08T00:47:07;12.80;99.90
15937;DHT22;9163;48.818;8.976;2023-08-08T00:49:35;12.80;99.90
15937;DHT22;9163;48.818;8.976;2023-08-08T00:52:05;12.70;99.90
15937;DHT22;9163;48.818;8.976;2023-08-08T00:54:32;12.70;99.90
15937;DHT22;9163;48.818;8.976;2023-08-08T00:57:00;12.70;99.90
15937;DHT22;9163;48.818;8.976;2023-08-08T00:59:27;12.70;99.90
15937;DHT22;9163;48.818;8.976;2023-08-08T01:01:54;12.60;99.90
15937;DHT22;9163;48.818;8.976;2023-08-08T01:04:23;12.70;99.90
15937;DHT22;9163;48.818;8.976;2023-08-08T01:06:58;12.60;99.90
15937;DHT22;9163;48.818;8.976;2023-08-08T01:09:33;12.60;99.90
15937;DHT22;9163;48.818;8.976;2023-08-08T01:12:04;12.70;99.90
15937;DHT22;9163;48.818;8.976;2023-08-08T01:14:34;12.70;99.90
15937;DHT22;9163;48.818;8.976;2023-08-08T01:17:03;12.70;99.90
15937;DHT22;9163;48.818;8.976;2023-08-08T01:19:31;12.70;99.90
15937;DHT22;9163;48.818;8.976;2023-08-08T01:22:02;12.70;99.90
15937;DHT22;9163;48.818;8.976;2023-08-08T01:24:33;12.70;99.90
15937;DHT22;9163;48.818;8.976;2023-08-08T01:27:04;12.70;99.90
15937;DHT22;9163;48.818;8.976;2023-08-08T01:29:32;12.70;99.90
15937;DHT22;9163;48.818;8.976;2023-08-08T01:31:59;12.70;99.90
15937;DHT22;9163;48.818;8.976;2023-08-08T01:34:26;12.70;99.90
15937;DHT22;9163;48.818;8.976;2023-08-08T01:36:56;12.70;99.90
15937;DHT22;9163;48.818;8.976;2023-08-08T01:39:26;12.70;99.90
15937;DHT22;9163;48.818;8.976;2023-08-08T01:41:56;12.70;99.90
15937;DHT22;9163;48.818;8.976;2023-08-08T01:44:24;12.80;99.90
15937;DHT22;9163;48.818;8.976;2023-08-08T01:46:52;12.80;99.90
15937;DHT22;9163;48.818;8.976;2023-08-08T01:49:20;12.80;99.90
15937;DHT22;9163;48.818;8.976;2023-08-08T01:51:47;12.80;99.90
15937;DHT22;9163;48.818;8.976;2023-08-08T01:54:16;12.70;99.90
15937;DHT22;9163;48.818;8.976;2023-08-08T01:56:43;12.70;99.90
15937;DHT22;9163;48.818;8.976;2023-08-08T01:59:12;12.60;99.90
15937;DHT22;9163;48.818;8.976;2023-08-08T02:01:39;12.60;99.90
15937;DHT22;9163;48.818;8.976;2023-08-08T02:04:06;12.60;99.90
15937;DHT22;9163;48.818;8.976;2023-08-08T02:06:34;12.50;99.90
15937;DHT22;9163;48.818;8.976;2023-08-08T02:09:01;12.50;99.90
15937;DHT22;9163;48.818;8.976;2023-08-08T02:11:28;12.50;99.90
15937;DHT22;9163;48.818;8.976;2023-08-08T02:13:55;12.50;99.90
15937;DHT22;9163;48.818;8.976;2023-08-08T02:16:24;12.40;99.90
15937;DHT22;9163;48.818;8.976;2023-08-08T02:18:51;12.40;99.90
15937;DHT22;9163;48.818;8.976;2023-08-08T02:21:18;12.40;99.90
15937;DHT22;9163;48.818;8.976;2023-08-08T02:23:46;12.30;99.90
15937;DHT22;9163;48.818;8.976;2023-08-08T02:26:13;12.30;99.90
15937;DHT22;9163;48.818;8.976;2023-08-08T02:28:40;12.20;99.90
15937;DHT22;9163;48.818;8.976;2023-08-08T02:31:08;12.20;99.90
15937;DHT22;9163;48.818;8.976;2023-08-08T02:33:36;12.10;99.90
15937;DHT22;9163;48.818;8.976;2023-08-08T02:36:04;12.10;99.90
15937;DHT22;9163;48.818;8.976;2023-08-08T02:38:31;12.00;99.90
15937;DHT22;9163;48.818;8.976;2023-08-08T02:40:58;12.00;99.90
15937;DHT22;9163;48.818;8.976;2023-08-08T02:43:25;12.00;99.90
15937;DHT22;9163;48.818;8.976;2023-08-08T02:45:53;12.00;99.90
15937;DHT22;9163;48.818;8.976;2023-08-08T02:48:20;12.00;99.90
15937;DHT22;9163;48.818;8.976;2023-08-08T02:50:48;11.90;99.90
15937;DHT22;9163;48.818;8.976;2023-08-08T02:53:16;11.90;99.90
15937;DHT22;9163;48.818;8.976;2023-08-08T02:55:43;11.90;99.90
15937;DHT22;9163;48.818;8.976;2023-08-08T02:58:10;11.90;99.90
15937;DHT22;9163;48.818;8.976;2023-08-08T03:00:37;11.80;99.90
15937;DHT22;9163;48.818;8.976;2023-08-08T03:03:05;11.80;99.90
15937;DHT22;9163;48.818;8.976;2023-08-08T03:05:32;11.70;99.90
15937;DHT22;9163;48.818;8.976;2023-08-08T03:08:01;11.70;99.90
15937;DHT22;9163;48.818;8.976;2023-08-08T03:10:28;11.70;99.90
15937;DHT22;9163;48.818;8.976;2023-08-08T03:12:55;11.70;99.90
15937;DHT22;9163;48.818;8.976;2023-08-08T03:15:22;11.70;99.90
15937;DHT22;9163;48.818;8.976;2023-08-08T03:17:50;11.70;99.90
15937;DHT22;9163;48.818;8.976;2023-08-08T03:20:17;11.60;99.90
15937;DHT22;9163;48.818;8.976;2023-08-08T03:22:44;11.70;99.90
15937;DHT22;9163;48.818;8.976;2023-08-08T03:25:13;11.70;99.90
15937;DHT22;9163;48.818;8.976;2023-08-08T03:27:41;11.80;99.90
15937;DHT22;9163;48.818;8.976;2023-08-08T03:30:09;11.90;99.90
15937;DHT22;9163;48.818;8.976;2023-08-08T03:32:36;11.90;99.90
15937;DHT22;9163;48.818;8.976;2023-08-08T03:35:04;12.00;99.90
15937;DHT22;9163;48.818;8.976;2023-08-08T03:37:32;12.00;99.90
15937;DHT22;9163;48.818;8.976;2023-08-08T03:39:59;12.20;99.90
15937;DHT22;9163;48.818;8.976;2023-08-08T03:42:27;12.20;99.90
15937;DHT22;9163;48.818;8.976;2023-08-08T03:44:55;12.30;99.90
15937;DHT22;9163;48.818;8.976;2023-08-08T03:47:22;12.30;99.90
15937;DHT22;9163;48.818;8.976;2023-08-08T03:49:49;12.40;99.90
15937;DHT22;9163;48.818;8.976;2023-08-08T03:52:16;12.40;99.90
15937;DHT22;9163;48.818;8.976;2023-08-08T03:54:43;12.50;99.90
15937;DHT22;9163;48.818;8.976;2023-08-08T03:57:11;12.50;99.90
15937;DHT22;9163;48.818;8.976;2023-08-08T03:59:39;12.50;99.90
15937;DHT22;9163;48.818;8.976;2023-08-08T04:02:07;12.50;99.90
15937;DHT22;9163;48.818;8.976;2023-08-08T04:04:34;12.50;99.90
15937;DHT22;9163;48.818;8.976;2023-08-08T04:07:02;12.50;99.90
15937;DHT22;9163;48.818;8.976;2023-08-08T04:09:29;12.50;99.90
15937;DHT22;9163;48.818;8.976;2023-08-08T04:11:57;12.50;99.90
15937;DHT22;9163;48.818;8.976;2023-08-08T04:14:24;12.50;99.90
15937;DHT22;9163;48.818;8.976;2023-08-08T04:16:52;12.50;99.90
15937;DHT22;9163;48.818;8.976;2023-08-08T04:19:20;12.50;99.90
15937;DHT22;9163;48.818;8.976;2023-08-08T04:21:47;12.50;99.90
15937;DHT22;9163;48.818;8.976;2023-08-08T04:24:14;12.50;99.90
15937;DHT22;9163;48.818;8.976;2023-08-08T04:26:41;12.50;99.90
15937;DHT22;9163;48.818;8.976;2023-08-08T04:29:09;12.50;99.90
15937;DHT22;9163;48.818;8.976;2023-08-08T04:31:36;12.40;99.90
15937;DHT22;9163;48.818;8.976;2023-08-08T04:34:04;12.50;99.90
15937;DHT22;9163;48.818;8.976;2023-08-08T04:36:32;12.50;99.90
15937;DHT22;9163;48.818;8.976;2023-08-08T04:38:59;12.50;99.90
15937;DHT22;9163;48.818;8.976;2023-08-08T04:41:26;12.50;99.90
15937;DHT22;9163;48.818;8.976;2023-08-08T04:43:53;12.50;99.90
15937;DHT22;9163;48.818;8.976;2023-08-08T04:46:21;12.60;99.90
15937;DHT22;9163;48.818;8.976;2023-08-08T04:48:48;12.60;99.90
15937;DHT22;9163;48.818;8.976;2023-08-08T04:51:17;12.60;99.90
15937;DHT22;9163;48.818;8.976;2023-08-08T04:53:44;12.60;99.90
15937;DHT22;9163;48.818;8.976;2023-08-08T04:56:11;12.60;99.90
15937;DHT22;9163;48.818;8.976;2023-08-08T04:58:38;12.50;99.90
15937;DHT22;9163;48.818;8.976;2023-08-08T05:01:05;12.60;99.90
15937;DHT22;9163;48.818;8.976;2023-08-08T05:03:34;12.60;99.90
15937;DHT22;9163;48.818;8.976;2023-08-08T05:06:02;12.60;99.90
15937;DHT22;9163;48.818;8.976;2023-08-08T05:08:31;12.70;99.90
15937;DHT22;9163;48.818;8.976;2023-08-08T05:10:58;12.70;99.90
15937;DHT22;9163;48.818;8.976;2023-08-08T05:13:25;12.70;99.90
15937;DHT22;9163;48.818;8.976;2023-08-08T05:15:52;12.70;99.90
15937;DHT22;9163;48.818;8.976;2023-08-08T05:18:20;12.90;99.90
15937;DHT22;9163;48.818;8.976;2023-08-08T05:20:47;12.80;99.90
15937;DHT22;9163;48.818;8.976;2023-08-08T05:23:14;12.90;99.90
15937;DHT22;9163;48.818;8.976;2023-08-08T05:25:43;12.90;99.90
15937;DHT22;9163;48.818;8.976;2023-08-08T05:28:10;13.00;99.90
15937;DHT22;9163;48.818;8.976;2023-08-08T05:30:37;13.00;99.90
15937;DHT22;9163;48.818;8.976;2023-08-08T05:33:05;13.10;99.90
15937;DHT22;9163;48.818;8.976;2023-08-08T05:35:32;13.10;99.90
15937;DHT22;9163;48.818;8.976;2023-08-08T05:37:59;13.30;99.90
15937;DHT22;9163;48.818;8.976;2023-08-08T05:40:26;13.40;99.90
15937;DHT22;9163;48.818;8.976;2023-08-08T05:42:55;13.40;99.90
15937;DHT22;9163;48.818;8.976;2023-08-08T05:45:22;13.40;99.90
15937;DHT22;9163;48.818;8.976;2023-08-08T05:47:49;13.50;99.90
15937;DHT22;9163;48.818;8.976;2023-08-08T05:50:17;13.70;99.90
15937;DHT22;9163;48.818;8.976;2023-08-08T05:52:44;13.70;99.90
15937;DHT22;9163;48.818;8.976;2023-08-08T05:55:11;13.90;99.90
15937;DHT22;9163;48.818;8.976;2023-08-08T05:57:38;14.00;99.90
15937;DHT22;9163;48.818;8.976;2023-08-08T06:00:08;14.00;99.90
15937;DHT22;9163;48.818;8.976;2023-08-08T06:02:37;14.20;99.90
15937;DHT22;9163;48.818;8.976;2023-08-08T06:05:05;14.20;99.90
15937;DHT22;9163;48.818;8.976;2023-08-08T06:07:32;14.40;99.90
15937;DHT22;9163;48.818;8.976;2023-08-08T06:10:00;14.50;99.90
15937;DHT22;9163;48.818;8.976;2023-08-08T06:12:28;14.50;99.90
15937;DHT22;9163;48.818;8.976;2023-08-08T06:14:55;14.70;99.90
15937;DHT22;9163;48.818;8.976;2023-08-08T06:17:24;14.90;99.90
15937;DHT22;9163;48.818;8.976;2023-08-08T06:19:51;14.80;99.90
15937;DHT22;9163;48.818;8.976;2023-08-08T06:22:20;15.00;99.90
15937;DHT22;9163;48.818;8.976;2023-08-08T06:24:47;15.00;99.90
15937;DHT22;9163;48.818;8.976;2023-08-08T06:27:14;15.00;99.90
15937;DHT22;9163;48.818;8.976;2023-08-08T06:29:41;15.20;99.90
15937;DHT22;9163;48.818;8.976;2023-08-08T06:32:09;15.20;99.90
15937;DHT22;9163;48.818;8.976;2023-08-08T06:34:37;15.00;99.90
15937;DHT22;9163;48.818;8.976;2023-08-08T06:37:05;15.10;99.90
15937;DHT22;9163;48.818;8.976;2023-08-08T06:39:32;15.10;99.90
15937;DHT22;9163;48.818;8.976;2023-08-08T06:42:00;15.10;99.90
15937;DHT22;9163;48.818;8.976;2023-08-08T06:44:28;15.30;99.90
15937;DHT22;9163;48.818;8.976;2023-08-08T06:46:55;15.40;99.90
15937;DHT22;9163;48.818;8.976;2023-08-08T06:49:22;15.40;99.90
15937;DHT22;9163;48.818;8.976;2023-08-08T06:51:51;15.60;97.20
15937;DHT22;9163;48.818;8.976;2023-08-08T06:54:18;15.80;98.90
15937;DHT22;9163;48.818;8.976;2023-08-08T06:56:45;16.10;90.20
15937;DHT22;9163;48.818;8.976;2023-08-08T06:59:12;16.10;73.70
15937;DHT22;9163;48.818;8.976;2023-08-08T07:01:39;16.10;60.00
15937;DHT22;9163;48.818;8.976;2023-08-08T07:04:07;16.20;69.80
15937;DHT22;9163;48.818;8.976;2023-08-08T07:06:34;16.40;58.20
15937;DHT22;9163;48.818;8.976;2023-08-08T07:09:03;16.50;67.00
15937;DHT22;9163;48.818;8.976;2023-08-08T07:11:30;16.60;46.40
15937;DHT22;9163;48.818;8.976;2023-08-08T07:13:58;16.80;56.30
15937;DHT22;9163;48.818;8.976;2023-08-08T07:16:25;16.70;52.90
15937;DHT22;9163;48.818;8.976;2023-08-08T07:18:52;16.90;49.50
15937;DHT22;9163;48.818;8.976;2023-08-08T07:21:19;17.00;36.90
15937;DHT22;9163;48.818;8.976;2023-08-08T07:23:47;17.20;36.40
15937;DHT22;9163;48.818;8.976;2023-08-08T07:26:15;17.00;26.60
15937;DHT22;9163;48.818;8.976;2023-08-08T07:28:43;16.90;20.00
15937;DHT22;9163;48.818;8.976;2023-08-08T07:31:10;16.90;20.40
15937;DHT22;9163;48.818;8.976;2023-08-08T07:33:37;16.90;21.50
15937;DHT22;9163;48.818;8.976;2023-08-08T07:36:04;17.00;21.90
15937;DHT22;9163;48.818;8.976;2023-08-08T07:38:32;17.10;13.50
15937;DHT22;9163;48.818;8.976;2023-08-08T07:40:59;17.30;17.50
15937;DHT22;9163;48.818;8.976;2023-08-08T07:43:28;17.40;6.90
15937;DHT22;9163;48.818;8.976;2023-08-08T07:45:55;17.70;8.40
15937;DHT22;9163;48.818;8.976;2023-08-08T07:48:22;17.80;4.00
15937;DHT22;9163;48.818;8.976;2023-08-08T07:50:49;17.70;1.00
15937;DHT22;9163;48.818;8.976;2023-08-08T07:53:17;17.60;3.60
15937;DHT22;9163;48.818;8.976;2023-08-08T07:55:44;17.80;1.30
15937;DHT22;9163;48.818;8.976;2023-08-08T07:58:12;17.80;1.00
15937;DHT22;9163;48.818;8.976;2023-08-08T08:00:41;17.80;3.10
15937;DHT22;9163;48.818;8.976;2023-08-08T08:03:08;17.80;1.00
15937;DHT22;9163;48.818;8.976;2023-08-08T08:05:35;17.70;1.00
15937;DHT22;9163;48.818;8.976;2023-08-08T08:08:03;17.50;1.00
15937;DHT22;9163;48.818;8.976;2023-08-08T08:10:31;17.60;1.00
15937;DHT22;9163;48.818;8.976;2023-08-08T08:12:58;17.60;1.00
15937;DHT22;9163;48.818;8.976;2023-08-08T08:15:26;17.50;1.00
15937;DHT22;9163;48.818;8.976;2023-08-08T08:17:54;17.50;1.00
15937;DHT22;9163;48.818;8.976;2023-08-08T08:20:21;17.60;1.00
15937;DHT22;9163;48.818;8.976;2023-08-08T08:22:49;17.70;1.00
15937;DHT22;9163;48.818;8.976;2023-08-08T08:25:16;18.10;1.00
15937;DHT22;9163;48.818;8.976;2023-08-08T08:27:43;18.10;1.00
15937;DHT22;9163;48.818;8.976;2023-08-08T08:30:12;18.20;1.00
15937;DHT22;9163;48.818;8.976;2023-08-08T08:32:40;18.30;1.00
15937;DHT22;9163;48.818;8.976;2023-08-08T08:35:09;18.50;1.00
15937;DHT22;9163;48.818;8.976;2023-08-08T08:37:38;18.80;1.00
15937;DHT22;9163;48.818;8.976;2023-08-08T08:40:06;18.90;1.00
15937;DHT22;9163;48.818;8.976;2023-08-08T08:42:35;18.80;1.00
15937;DHT22;9163;48.818;8.976;2023-08-08T08:45:04;19.10;1.00
15937;DHT22;9163;48.818;8.976;2023-08-08T08:47:31;18.80;1.00
15937;DHT22;9163;48.818;8.976;2023-08-08T08:50:00;19.00;1.00
15937;DHT22;9163;48.818;8.976;2023-08-08T08:52:30;19.30;1.00
15937;DHT22;9163;48.818;8.976;2023-08-08T08:54:58;19.60;1.00
15937;DHT22;9163;48.818;8.976;2023-08-08T08:57:26;19.70;1.00
15937;DHT22;9163;48.818;8.976;2023-08-08T08:59:53;19.80;1.00
15937;DHT22;9163;48.818;8.976;2023-08-08T09:02:21;20.20;1.00
15937;DHT22;9163;48.818;8.976;2023-08-08T09:04:48;19.90;1.00
15937;DHT22;9163;48.818;8.976;2023-08-08T09:07:19;19.50;1.00
15937;DHT22;9163;48.818;8.976;2023-08-08T09:09:48;19.10;1.00
15937;DHT22;9163;48.818;8.976;2023-08-08T09:12:16;18.90;1.00
15937;DHT22;9163;48.818;8.976;2023-08-08T09:14:43;19.30;1.00
15937;DHT22;9163;48.818;8.976;2023-08-08T09:17:11;19.00;1.00
15937;DHT22;9163;48.818;8.976;2023-08-08T09:19:42;19.30;1.00
15937;DHT22;9163;48.818;8.976;2023-08-08T09:22:09;19.50;1.00
15937;DHT22;9163;48.818;8.976;2023-08-08T09:24:39;19.30;1.00
15937;DHT22;9163;48.818;8.976;2023-08-08T09:27:08;19.30;1.00
15937;DHT22;9163;48.818;8.976;2023-08-08T09:29:35;19.80;1.00
15937;DHT22;9163;48.818;8.976;2023-08-08T09:32:03;19.80;1.00
15937;DHT22;9163;48.818;8.976;2023-08-08T09:34:31;19.90;1.00
15937;DHT22;9163;48.818;8.976;2023-08-08T09:36:58;20.60;1.00
15937;DHT22;9163;48.818;8.976;2023-08-08T09:39:26;20.50;1.00
15937;DHT22;9163;48.818;8.976;2023-08-08T09:41:53;20.70;1.00
15937;DHT22;9163;48.818;8.976;2023-08-08T09:44:24;21.00;1.00
15937;DHT22;9163;48.818;8.976;2023-08-08T09:46:55;21.10;1.00
15937;DHT22;9163;48.818;8.976;2023-08-08T09:49:22;20.90;1.00
15937;DHT22;9163;48.818;8.976;2023-08-08T09:51:50;20.70;1.00
15937;DHT22;9163;48.818;8.976;2023-08-08T09:54:17;20.60;1.00
15937;DHT22;9163;48.818;8.976;2023-08-08T09:56:45;20.50;1.00
15937;DHT22;9163;48.818;8.976;2023-08-08T09:59:13;20.80;1.00
15937;DHT22;9163;48.818;8.976;2023-08-08T10:01:42;20.60;1.00
15937;DHT22;9163;48.818;8.976;2023-08-08T10:04:11;20.60;1.00
15937;DHT22;9163;48.818;8.976;2023-08-08T10:06:39;21.30;1.00
15937;DHT22;9163;48.818;8.976;2023-08-08T10:09:07;21.00;1.00
15937;DHT22;9163;48.818;8.976;2023-08-08T10:11:34;21.60;1.00
15937;DHT22;9163;48.818;8.976;2023-08-08T10:14:03;21.60;1.00
15937;DHT22;9163;48.818;8.976;2023-08-08T10:16:32;21.40;1.00
15937;DHT22;9163;48.818;8.976;2023-08-08T10:19:03;21.90;1.00
15937;DHT22;9163;48.818;8.976;2023-08-08T10:21:33;22.00;1.00
15937;DHT22;9163;48.818;8.976;2023-08-08T10:24:06;22.20;1.00
15937;DHT22;9163;48.818;8.976;2023-08-08T10:26:34;22.40;1.00
15937;DHT22;9163;48.818;8.976;2023-08-08T10:29:18;22.40;1.00
15937;DHT22;9163;48.818;8.976;2023-08-08T10:31:51;22.10;1.00
15937;DHT22;9163;48.818;8.976;2023-08-08T10:34:20;21.90;1.00
15937;DHT22;9163;48.818;8.976;2023-08-08T10:36:51;22.10;1.00
15937;DHT22;9163;48.818;8.976;2023-08-08T10:39:20;22.60;1.00
15937;DHT22;9163;48.818;8.976;2023-08-08T10:41:49;22.30;1.00
15937;DHT22;9163;48.818;8.976;2023-08-08T10:44:23;22.50;1.00
15937;DHT22;9163;48.818;8.976;2023-08-08T10:46:52;22.60;1.00
15937;DHT22;9163;48.818;8.976;2023-08-08T10:49:22;21.90;99.90
15937;DHT22;9163;48.818;8.976;2023-08-08T10:51:50;21.80;99.90
15937;DHT22;9163;48.818;8.976;2023-08-08T10:54:20;21.90;99.90
15937;DHT22;9163;48.818;8.976;2023-08-08T10:56:49;22.60;99.90
15937;DHT22;9163;48.818;8.976;2023-08-08T10:59:18;22.60;99.90
15937;DHT22;9163;48.818;8.976;2023-08-08T11:01:47;22.50;99.90
15937;DHT22;9163;48.818;8.976;2023-08-08T11:04:16;21.90;99.90
15937;DHT22;9163;48.818;8.976;2023-08-08T11:06:46;21.70;99.90
15937;DHT22;9163;48.818;8.976;2023-08-08T11:09:16;21.70;99.90
15937;DHT22;9163;48.818;8.976;2023-08-08T11:11:45;21.40;99.90
15937;DHT22;9163;48.818;8.976;2023-08-08T11:14:13;21.70;99.90
15937;DHT22;9163;48.818;8.976;2023-08-08T11:16:40;22.30;99.90
15937;DHT22;9163;48.818;8.976;2023-08-08T11:19:09;23.20;99.90
15937;DHT22;9163;48.818;8.976;2023-08-08T11:21:37;22.80;99.90
15937;DHT22;9163;48.818;8.976;2023-08-08T11:24:07;23.30;99.90
15937;DHT22;9163;48.818;8.976;2023-08-08T11:26:34;23.30;99.90
15937;DHT22;9163;48.818;8.976;2023-08-08T11:29:03;22.90;99.90
15937;DHT22;9163;48.818;8.976;2023-08-08T11:31:32;22.90;1.00
15937;DHT22;9163;48.818;8.976;2023-08-08T11:34:00;22.30;99.90
15937;DHT22;9163;48.818;8.976;2023-08-08T11:36:29;22.80;99.90
15937;DHT22;9163;48.818;8.976;2023-08-08T11:38:57;23.50;99.90
15937;DHT22;9163;48.818;8.976;2023-08-08T11:41:28;23.40;99.90
15937;DHT22;9163;48.818;8.976;2023-08-08T11:43:55;23.80;99.90
15937;DHT22;9163;48.818;8.976;2023-08-08T11:46:23;23.10;99.90
15937;DHT22;9163;48.818;8.976;2023-08-08T11:48:51;22.70;99.90
15937;DHT22;9163;48.818;8.976;2023-08-08T11:51:18;23.30;99.90
15937;DHT22;9163;48.818;8.976;2023-08-08T11:53:49;23.20;99.90
15937;DHT22;9163;48.818;8.976;2023-08-08T11:56:19;23.00;99.90
15937;DHT22;9163;48.818;8.976;2023-08-08T11:58:49;23.10;99.90
15937;DHT22;9163;48.818;8.976;2023-08-08T12:01:20;23.80;99.90
15937;DHT22;9163;48.818;8.976;2023-08-08T12:03:47;24.20;99.90
15937;DHT22;9163;48.818;8.976;2023-08-08T12:06:15;24.30;99.90
15937;DHT22;9163;48.818;8.976;2023-08-08T12:08:43;24.00;99.90
15937;DHT22;9163;48.818;8.976;2023-08-08T12:11:11;23.80;99.90
15937;DHT22;9163;48.818;8.976;2023-08-08T12:13:41;22.90;99.90
15937;DHT22;9163;48.818;8.976;2023-08-08T12:16:12;22.30;99.90
15937;DHT22;9163;48.818;8.976;2023-08-08T12:18:40;23.20;99.90
15937;DHT22;9163;48.818;8.976;2023-08-08T12:21:08;23.00;99.90
15937;DHT22;9163;48.818;8.976;2023-08-08T12:23:37;23.50;99.90
15937;DHT22;9163;48.818;8.976;2023-08-08T12:26:04;23.60;99.90
15937;DHT22;9163;48.818;8.976;2023-08-08T12:28:32;22.70;99.90
15937;DHT22;9163;48.818;8.976;2023-08-08T12:31:00;23.50;99.90
15937;DHT22;9163;48.818;8.976;2023-08-08T12:33:29;23.80;99.90
15937;DHT22;9163;48.818;8.976;2023-08-08T12:35:56;23.60;99.90
15937;DHT22;9163;48.818;8.976;2023-08-08T12:38:23;23.20;99.90
15937;DHT22;9163;48.818;8.976;2023-08-08T12:40:51;23.30;99.90
15937;DHT22;9163;48.818;8.976;2023-08-08T12:43:18;23.20;99.90
15937;DHT22;9163;48.818;8.976;2023-08-08T12:45:45;23.20;98.40
15937;DHT22;9163;48.818;8.976;2023-08-08T12:48:13;23.30;99.90
15937;DHT22;9163;48.818;8.976;2023-08-08T12:50:42;23.20;99.90
15937;DHT22;9163;48.818;8.976;2023-08-08T12:53:09;22.90;99.90
15937;DHT22;9163;48.818;8.976;2023-08-08T12:55:36;22.90;99.90
15937;DHT22;9163;48.818;8.976;2023-08-08T12:58:05;23.30;99.90
15937;DHT22;9163;48.818;8.976;2023-08-08T13:00:32;23.60;99.90
15937;DHT22;9163;48.818;8.976;2023-08-08T13:02:59;22.30;99.90
15937;DHT22;9163;48.818;8.976;2023-08-08T13:05:26;21.80;99.90
15937;DHT22;9163;48.818;8.976;2023-08-08T13:07:55;21.70;99.90
15937;DHT22;9163;48.818;8.976;2023-08-08T13:10:22;21.90;99.90
15937;DHT22;9163;48.818;8.976;2023-08-08T13:12:49;22.00;99.90
15937;DHT22;9163;48.818;8.976;2023-08-08T13:15:17;22.90;99.90
15937;DHT22;9163;48.818;8.976;2023-08-08T13:17:45;23.40;99.90
15937;DHT22;9163;48.818;8.976;2023-08-08T13:20:12;23.70;99.90
15937;DHT22;9163;48.818;8.976;2023-08-08T13:22:39;23.60;99.90
15937;DHT22;9163;48.818;8.976;2023-08-08T13:25:10;23.50;99.90
15937;DHT22;9163;48.818;8.976;2023-08-08T13:27:37;23.40;99.90
15937;DHT22;9163;48.818;8.976;2023-08-08T13:30:05;24.10;99.90
15937;DHT22;9163;48.818;8.976;2023-08-08T13:32:33;23.50;92.50
15937;DHT22;9163;48.818;8.976;2023-08-08T13:35:00;23.00;96.00
15937;DHT22;9163;48.818;8.976;2023-08-08T13:37:27;23.50;21.30
15937;DHT22;9163;48.818;8.976;2023-08-08T13:39:55;23.10;11.50
15937;DHT22;9163;48.818;8.976;2023-08-08T13:42:23;23.30;1.00
15937;DHT22;9163;48.818;8.976;2023-08-08T13:44:51;23.50;1.00
15937;DHT22;9163;48.818;8.976;2023-08-08T13:47:18;23.80;1.00
15937;DHT22;9163;48.818;8.976;2023-08-08T13:49:46;23.00;1.00
15937;DHT22;9163;48.818;8.976;2023-08-08T13:52:13;23.00;1.00
15937;DHT22;9163;48.818;8.976;2023-08-08T13:54:40;22.90;1.00
15937;DHT22;9163;48.818;8.976;2023-08-08T13:57:07;22.70;1.00
15937;DHT22;9163;48.818;8.976;2023-08-08T13:59:36;22.60;1.00
15937;DHT22;9163;48.818;8.976;2023-08-08T14:02:03;22.90;1.00
15937;DHT22;9163;48.818;8.976;2023-08-08T14:04:30;23.20;1.00
15937;DHT22;9163;48.818;8.976;2023-08-08T14:06:58;23.50;1.00
15937;DHT22;9163;48.818;8.976;2023-08-08T14:09:25;23.30;1.00
15937;DHT22;9163;48.818;8.976;2023-08-08T14:11:52;22.90;1.00
15937;DHT22;9163;48.818;8.976;2023-08-08T14:14:19;22.70;1.00
15937;DHT22;9163;48.818;8.976;2023-08-08T14:16:48;22.90;1.00
15937;DHT22;9163;48.818;8.976;2023-08-08T14:19:15;22.40;1.00
15937;DHT22;9163;48.818;8.976;2023-08-08T14:21:43;21.90;1.00
15937;DHT22;9163;48.818;8.976;2023-08-08T14:24:10;22.00;1.00
15937;DHT22;9163;48.818;8.976;2023-08-08T14:26:37;21.70;1.00
15937;DHT22;9163;48.818;8.976;2023-08-08T14:29:05;21.50;1.00
15937;DHT22;9163;48.818;8.976;2023-08-08T14:31:32;21.80;1.00
15937;DHT22;9163;48.818;8.976;2023-08-08T14:34:01;21.80;1.00
15937;DHT22;9163;48.818;8.976;2023-08-08T14:36:29;21.80;1.00
15937;DHT22;9163;48.818;8.976;2023-08-08T14:38:56;21.60;1.00
15937;DHT22;9163;48.818;8.976;2023-08-08T14:41:24;21.60;1.00
15937;DHT22;9163;48.818;8.976;2023-08-08T14:43:51;21.60;1.00
15937;DHT22;9163;48.818;8.976;2023-08-08T14:46:18;21.10;1.00
15937;DHT22;9163;48.818;8.976;2023-08-08T14:48:45;20.80;1.00
15937;DHT22;9163;48.818;8.976;2023-08-08T14:51:14;20.50;1.00
15937;DHT22;9163;48.818;8.976;2023-08-08T14:53:42;20.30;1.00
15937;DHT22;9163;48.818;8.976;2023-08-08T14:56:10;20.30;1.00
15937;DHT22;9163;48.818;8.976;2023-08-08T14:58:37;20.30;1.00
15937;DHT22;9163;48.818;8.976;2023-08-08T15:01:04;20.50;1.00
15937;DHT22;9163;48.818;8.976;2023-08-08T15:03:31;21.00;1.00
15937;DHT22;9163;48.818;8.976;2023-08-08T15:05:59;21.30;1.00
15937;DHT22;9163;48.818;8.976;2023-08-08T15:08:27;21.60;1.00
15937;DHT22;9163;48.818;8.976;2023-08-08T15:10:54;21.40;1.00
15937;DHT22;9163;48.818;8.976;2023-08-08T15:13:22;21.20;1.00
15937;DHT22;9163;48.818;8.976;2023-08-08T15:15:50;21.30;1.00
15937;DHT22;9163;48.818;8.976;2023-08-08T15:18:17;21.40;1.00
15937;DHT22;9163;48.818;8.976;2023-08-08T15:20:44;20.90;1.00
15937;DHT22;9163;48.818;8.976;2023-08-08T15:23:11;20.70;1.00
15937;DHT22;9163;48.818;8.976;2023-08-08T15:25:40;20.50;1.00
15937;DHT22;9163;48.818;8.976;2023-08-08T15:28:08;20.60;1.00
15937;DHT22;9163;48.818;8.976;2023-08-08T15:30:36;20.40;1.00
15937;DHT22;9163;48.818;8.976;2023-08-08T15:33:04;20.30;1.00
15937;DHT22;9163;48.818;8.976;2023-08-08T15:35:31;20.40;1.00
15937;DHT22;9163;48.818;8.976;2023-08-08T15:37:58;20.00;1.00
15937;DHT22;9163;48.818;8.976;2023-08-08T15:40:26;19.90;1.00
15937;DHT22;9163;48.818;8.976;2023-08-08T15:42:54;19.80;1.00
15937;DHT22;9163;48.818;8.976;2023-08-08T15:45:22;19.90;1.00
15937;DHT22;9163;48.818;8.976;2023-08-08T15:47:49;20.00;1.00
15937;DHT22;9163;48.818;8.976;2023-08-08T15:50:17;19.90;1.00
15937;DHT22;9163;48.818;8.976;2023-08-08T15:52:45;20.30;1.00
15937;DHT22;9163;48.818;8.976;2023-08-08T15:55:13;20.40;1.00